sensor_id;sensor_type;location;lat;lon;timestamp;P1;durP1;ratioP1;P2;durP2;ratioP2
37891;SDS011;45797;47.466;9.486;2022-12-29T00:03:56;1.85;;;0.68;;
37891;SDS011;45797;47.466;9.486;2022-12-29T00:08:57;1.48;;;0.60;;
37891;SDS011;45797;47.466;9.486;2022-12-29T00:13:58;1.60;;;0.80;;
37891;SDS011;45797;47.466;9.486;2022-12-29T00:19:17;3.35;;;0.80;;
37891;SDS011;45797;47.466;9.486;2022-12-29T00:24:38;1.38;;;0.50;;
37891;SDS011;45797;47.466;9.486;2022-12-29T00:29:55;1.42;;;0.70;;
37891;SDS011;45797;47.466;9.486;2022-12-29T00:35:20;1.23;;;0.60;;
37891;SDS011;45797;47.466;9.486;2022-12-29T00:45:46;6.07;;;0.70;;
37891;SDS011;45797;47.466;9.486;2022-12-29T00:50:46;1.15;;;0.60;;
37891;SDS011;45797;47.466;9.486;2022-12-29T00:55:48;1.05;;;0.50;;
37891;SDS011;45797;47.466;9.486;2022-12-29T01:00:51;2.63;;;0.50;;
37891;SDS011;45797;47.466;9.486;2022-12-29T01:05:59;1.75;;;0.60;;
37891;SDS011;45797;47.466;9.486;2022-12-29T01:11:03;1.17;;;0.60;;
37891;SDS011;45797;47.466;9.486;2022-12-29T01:16:23;0.63;;;0.47;;
37891;SDS011;45797;47.466;9.486;2022-12-29T01:21:24;0.95;;;0.40;;
37891;SDS011;45797;47.466;9.486;2022-12-29T01:26:26;0.75;;;0.50;;
37891;SDS011;45797;47.466;9.486;2022-12-29T01:31:28;0.82;;;0.50;;
37891;SDS011;45797;47.466;9.486;2022-12-29T01:36:28;1.17;;;0.70;;
37891;SDS011;45797;47.466;9.486;2022-12-29T01:41:29;1.75;;;0.73;;
37891;SDS011;45797;47.466;9.486;2022-12-29T01:46:47;1.33;;;0.52;;
37891;SDS011;45797;47.466;9.486;2022-12-29T01:51:53;0.63;;;0.40;;
37891;SDS011;45797;47.466;9.486;2022-12-29T01:57:01;1.27;;;0.60;;
37891;SDS011;45797;47.466;9.486;2022-12-29T02:02:04;4.68;;;0.60;;
37891;SDS011;45797;47.466;9.486;2022-12-29T02:12:28;1.67;;;0.77;;
37891;SDS011;45797;47.466;9.486;2022-12-29T02:17:48;2.78;;;0.70;;
37891;SDS011;45797;47.466;9.486;2022-12-29T02:23:18;1.75;;;0.70;;
37891;SDS011;45797;47.466;9.486;2022-12-29T02:56:18;0.90;;;0.52;;
37891;SDS011;45797;47.466;9.486;2022-12-29T03:01:29;4.20;;;0.85;;
37891;SDS011;45797;47.466;9.486;2022-12-29T03:17:46;1.88;;;0.80;;
37891;SDS011;45797;47.466;9.486;2022-12-29T03:23:00;3.55;;;0.77;;
37891;SDS011;45797;47.466;9.486;2022-12-29T03:28:29;1.90;;;0.63;;
37891;SDS011;45797;47.466;9.486;2022-12-29T03:33:37;1.00;;;0.60;;
37891;SDS011;45797;47.466;9.486;2022-12-29T03:44:12;1.33;;;0.55;;
37891;SDS011;45797;47.466;9.486;2022-12-29T03:49:13;1.23;;;0.60;;
37891;SDS011;45797;47.466;9.486;2022-12-29T03:54:15;0.98;;;0.55;;
37891;SDS011;45797;47.466;9.486;2022-12-29T03:59:17;0.65;;;0.40;;
37891;SDS011;45797;47.466;9.486;2022-12-29T04:04:18;1.13;;;0.50;;
37891;SDS011;45797;47.466;9.486;2022-12-29T04:09:25;1.10;;;0.52;;
37891;SDS011;45797;47.466;9.486;2022-12-29T04:14:41;0.98;;;0.55;;
37891;SDS011;45797;47.466;9.486;2022-12-29T04:19:44;1.67;;;0.65;;
37891;SDS011;45797;47.466;9.486;2022-12-29T04:24:46;1.17;;;0.60;;
37891;SDS011;45797;47.466;9.486;2022-12-29T04:29:47;1.15;;;0.60;;
37891;SDS011;45797;47.466;9.486;2022-12-29T04:35:15;2.63;;;0.60;;
37891;SDS011;45797;47.466;9.486;2022-12-29T04:40:15;1.20;;;0.60;;
37891;SDS011;45797;47.466;9.486;2022-12-29T04:45:17;0.50;;;0.40;;
37891;SDS011;45797;47.466;9.486;2022-12-29T04:50:43;1.30;;;0.60;;
37891;SDS011;45797;47.466;9.486;2022-12-29T04:55:50;2.47;;;0.50;;
37891;SDS011;45797;47.466;9.486;2022-12-29T05:00:51;0.70;;;0.40;;
37891;SDS011;45797;47.466;9.486;2022-12-29T05:11:14;0.95;;;0.50;;
37891;SDS011;45797;47.466;9.486;2022-12-29T05:16:24;1.30;;;0.60;;
37891;SDS011;45797;47.466;9.486;2022-12-29T05:21:27;1.15;;;0.57;;
37891;SDS011;45797;47.466;9.486;2022-12-29T05:26:28;0.80;;;0.40;;
37891;SDS011;45797;47.466;9.486;2022-12-29T05:31:47;0.70;;;0.40;;
37891;SDS011;45797;47.466;9.486;2022-12-29T05:42:07;2.55;;;0.60;;
37891;SDS011;45797;47.466;9.486;2022-12-29T05:47:19;1.38;;;0.70;;
37891;SDS011;45797;47.466;9.486;2022-12-29T05:52:40;0.63;;;0.40;;
37891;SDS011;45797;47.466;9.486;2022-12-29T05:57:41;0.98;;;0.55;;
37891;SDS011;45797;47.466;9.486;2022-12-29T06:02:48;0.63;;;0.50;;
37891;SDS011;45797;47.466;9.486;2022-12-29T06:07:50;0.60;;;0.47;;
37891;SDS011;45797;47.466;9.486;2022-12-29T06:12:55;1.73;;;0.82;;
37891;SDS011;45797;47.466;9.486;2022-12-29T06:22:59;1.42;;;0.80;;
37891;SDS011;45797;47.466;9.486;2022-12-29T06:27:59;1.10;;;0.70;;
37891;SDS011;45797;47.466;9.486;2022-12-29T06:33:00;1.08;;;0.55;;
37891;SDS011;45797;47.466;9.486;2022-12-29T06:38:07;0.93;;;0.45;;
37891;SDS011;45797;47.466;9.486;2022-12-29T06:43:08;1.20;;;0.52;;
37891;SDS011;45797;47.466;9.486;2022-12-29T06:48:40;1.65;;;0.60;;
37891;SDS011;45797;47.466;9.486;2022-12-29T06:53:51;1.23;;;0.65;;
37891;SDS011;45797;47.466;9.486;2022-12-29T06:59:00;1.27;;;0.70;;
37891;SDS011;45797;47.466;9.486;2022-12-29T07:04:01;1.63;;;0.70;;
37891;SDS011;45797;47.466;9.486;2022-12-29T07:09:03;1.60;;;0.70;;
37891;SDS011;45797;47.466;9.486;2022-12-29T07:14:13;1.52;;;0.75;;
37891;SDS011;45797;47.466;9.486;2022-12-29T07:19:15;1.40;;;0.70;;
37891;SDS011;45797;47.466;9.486;2022-12-29T07:24:16;1.30;;;0.70;;
37891;SDS011;45797;47.466;9.486;2022-12-29T07:34:21;2.17;;;0.82;;
37891;SDS011;45797;47.466;9.486;2022-12-29T07:44:27;1.48;;;0.65;;
37891;SDS011;45797;47.466;9.486;2022-12-29T07:49:28;1.00;;;0.60;;
37891;SDS011;45797;47.466;9.486;2022-12-29T07:54:31;1.10;;;0.60;;
37891;SDS011;45797;47.466;9.486;2022-12-29T07:59:32;1.02;;;0.50;;
37891;SDS011;45797;47.466;9.486;2022-12-29T08:04:32;1.70;;;0.57;;
37891;SDS011;45797;47.466;9.486;2022-12-29T08:14:48;1.27;;;0.70;;
37891;SDS011;45797;47.466;9.486;2022-12-29T08:19:49;1.73;;;0.60;;
37891;SDS011;45797;47.466;9.486;2022-12-29T08:24:51;1.63;;;0.70;;
37891;SDS011;45797;47.466;9.486;2022-12-29T08:29:58;1.80;;;0.82;;
37891;SDS011;45797;47.466;9.486;2022-12-29T08:35:01;2.08;;;0.80;;
37891;SDS011;45797;47.466;9.486;2022-12-29T08:40:02;1.92;;;0.77;;
37891;SDS011;45797;47.466;9.486;2022-12-29T08:50:34;1.55;;;0.63;;
37891;SDS011;45797;47.466;9.486;2022-12-29T08:55:45;1.10;;;0.60;;
37891;SDS011;45797;47.466;9.486;2022-12-29T09:00:59;1.35;;;0.57;;
37891;SDS011;45797;47.466;9.486;2022-12-29T09:06:01;1.70;;;0.60;;
37891;SDS011;45797;47.466;9.486;2022-12-29T09:11:07;1.27;;;0.60;;
37891;SDS011;45797;47.466;9.486;2022-12-29T09:16:34;1.48;;;0.65;;
37891;SDS011;45797;47.466;9.486;2022-12-29T09:21:47;2.15;;;0.80;;
37891;SDS011;45797;47.466;9.486;2022-12-29T09:26:48;1.70;;;0.93;;
37891;SDS011;45797;47.466;9.486;2022-12-29T09:36:51;1.90;;;0.85;;
37891;SDS011;45797;47.466;9.486;2022-12-29T09:42:06;2.30;;;0.90;;
37891;SDS011;45797;47.466;9.486;2022-12-29T09:47:16;2.55;;;0.90;;
37891;SDS011;45797;47.466;9.486;2022-12-29T09:52:21;2.22;;;0.82;;
37891;SDS011;45797;47.466;9.486;2022-12-29T09:57:34;1.85;;;0.80;;
37891;SDS011;45797;47.466;9.486;2022-12-29T10:02:43;1.77;;;0.80;;
37891;SDS011;45797;47.466;9.486;2022-12-29T10:07:52;2.22;;;0.88;;
37891;SDS011;45797;47.466;9.486;2022-12-29T10:13:09;3.35;;;1.40;;
37891;SDS011;45797;47.466;9.486;2022-12-29T10:24:14;3.20;;;1.13;;
37891;SDS011;45797;47.466;9.486;2022-12-29T10:29:18;4.45;;;1.10;;
37891;SDS011;45797;47.466;9.486;2022-12-29T10:39:52;2.05;;;0.90;;
37891;SDS011;45797;47.466;9.486;2022-12-29T10:44:58;1.70;;;0.80;;
37891;SDS011;45797;47.466;9.486;2022-12-29T10:50:00;1.90;;;0.80;;
37891;SDS011;45797;47.466;9.486;2022-12-29T11:16:13;1.40;;;0.70;;
37891;SDS011;45797;47.466;9.486;2022-12-29T11:27:54;1.63;;;0.70;;
37891;SDS011;45797;47.466;9.486;2022-12-29T11:32:57;3.10;;;0.65;;
37891;SDS011;45797;47.466;9.486;2022-12-29T11:37:59;1.35;;;0.60;;
37891;SDS011;45797;47.466;9.486;2022-12-29T11:43:11;1.45;;;0.70;;
37891;SDS011;45797;47.466;9.486;2022-12-29T11:48:39;2.30;;;0.80;;
37891;SDS011;45797;47.466;9.486;2022-12-29T11:53:49;1.00;;;0.50;;
37891;SDS011;45797;47.466;9.486;2022-12-29T12:09:22;2.45;;;1.00;;
37891;SDS011;45797;47.466;9.486;2022-12-29T12:14:34;1.98;;;0.80;;
37891;SDS011;45797;47.466;9.486;2022-12-29T12:19:59;2.10;;;0.80;;
37891;SDS011;45797;47.466;9.486;2022-12-29T12:30:50;3.25;;;0.88;;
37891;SDS011;45797;47.466;9.486;2022-12-29T12:36:14;1.85;;;0.88;;
37891;SDS011;45797;47.466;9.486;2022-12-29T12:47:16;2.13;;;0.80;;
37891;SDS011;45797;47.466;9.486;2022-12-29T12:52:40;5.82;;;1.00;;
37891;SDS011;45797;47.466;9.486;2022-12-29T13:03:13;3.47;;;1.00;;
37891;SDS011;45797;47.466;9.486;2022-12-29T13:20:06;2.17;;;1.00;;
37891;SDS011;45797;47.466;9.486;2022-12-29T13:30:30;3.55;;;0.95;;
37891;SDS011;45797;47.466;9.486;2022-12-29T13:51:08;3.90;;;1.23;;
37891;SDS011;45797;47.466;9.486;2022-12-29T14:07:03;4.32;;;1.02;;
37891;SDS011;45797;47.466;9.486;2022-12-29T14:28:22;4.45;;;0.80;;
37891;SDS011;45797;47.466;9.486;2022-12-29T14:33:30;3.38;;;1.20;;
37891;SDS011;45797;47.466;9.486;2022-12-29T14:38:32;2.88;;;1.23;;
37891;SDS011;45797;47.466;9.486;2022-12-29T14:43:38;3.70;;;1.17;;
37891;SDS011;45797;47.466;9.486;2022-12-29T14:48:41;4.93;;;1.05;;
37891;SDS011;45797;47.466;9.486;2022-12-29T14:53:49;3.35;;;1.10;;
37891;SDS011;45797;47.466;9.486;2022-12-29T14:58:51;1.95;;;1.00;;
37891;SDS011;45797;47.466;9.486;2022-12-29T15:09:29;2.38;;;1.17;;
37891;SDS011;45797;47.466;9.486;2022-12-29T15:14:37;1.95;;;0.88;;
37891;SDS011;45797;47.466;9.486;2022-12-29T15:25:28;2.90;;;1.00;;
37891;SDS011;45797;47.466;9.486;2022-12-29T15:36:20;5.80;;;0.90;;
37891;SDS011;45797;47.466;9.486;2022-12-29T15:41:24;4.15;;;0.88;;
37891;SDS011;45797;47.466;9.486;2022-12-29T15:52:30;2.30;;;0.82;;
37891;SDS011;45797;47.466;9.486;2022-12-29T16:08:37;3.35;;;0.70;;
37891;SDS011;45797;47.466;9.486;2022-12-29T16:13:39;2.53;;;0.90;;
37891;SDS011;45797;47.466;9.486;2022-12-29T16:18:41;2.30;;;0.70;;
37891;SDS011;45797;47.466;9.486;2022-12-29T16:29:01;1.60;;;0.82;;
37891;SDS011;45797;47.466;9.486;2022-12-29T16:39:39;2.38;;;0.90;;
37891;SDS011;45797;47.466;9.486;2022-12-29T16:45:04;2.10;;;0.88;;
37891;SDS011;45797;47.466;9.486;2022-12-29T16:50:20;4.07;;;1.00;;
37891;SDS011;45797;47.466;9.486;2022-12-29T16:55:24;1.95;;;0.80;;
37891;SDS011;45797;47.466;9.486;2022-12-29T17:00:35;2.38;;;1.10;;
37891;SDS011;45797;47.466;9.486;2022-12-29T17:05:38;2.47;;;0.98;;
37891;SDS011;45797;47.466;9.486;2022-12-29T17:10:38;4.35;;;0.80;;
37891;SDS011;45797;47.466;9.486;2022-12-29T17:15:58;2.03;;;0.77;;
37891;SDS011;45797;47.466;9.486;2022-12-29T17:21:05;2.15;;;0.88;;
37891;SDS011;45797;47.466;9.486;2022-12-29T17:26:07;2.70;;;0.70;;
37891;SDS011;45797;47.466;9.486;2022-12-29T17:31:09;3.83;;;0.80;;
37891;SDS011;45797;47.466;9.486;2022-12-29T17:36:10;1.55;;;0.70;;
37891;SDS011;45797;47.466;9.486;2022-12-29T17:41:13;2.53;;;0.90;;
37891;SDS011;45797;47.466;9.486;2022-12-29T17:46:14;2.25;;;0.70;;
37891;SDS011;45797;47.466;9.486;2022-12-29T17:56:26;1.58;;;0.75;;
37891;SDS011;45797;47.466;9.486;2022-12-29T18:01:27;2.45;;;0.80;;
37891;SDS011;45797;47.466;9.486;2022-12-29T18:06:29;1.02;;;0.60;;
37891;SDS011;45797;47.466;9.486;2022-12-29T18:11:31;2.13;;;0.60;;
37891;SDS011;45797;47.466;9.486;2022-12-29T18:16:32;4.90;;;0.80;;
37891;SDS011;45797;47.466;9.486;2022-12-29T18:21:33;1.73;;;0.70;;
37891;SDS011;45797;47.466;9.486;2022-12-29T18:26:34;2.08;;;0.77;;
37891;SDS011;45797;47.466;9.486;2022-12-29T18:31:44;1.58;;;0.75;;
37891;SDS011;45797;47.466;9.486;2022-12-29T18:36:45;1.83;;;0.80;;
37891;SDS011;45797;47.466;9.486;2022-12-29T18:46:58;2.22;;;0.95;;
37891;SDS011;45797;47.466;9.486;2022-12-29T18:52:16;3.22;;;0.90;;
37891;SDS011;45797;47.466;9.486;2022-12-29T19:02:49;2.33;;;0.63;;
37891;SDS011;45797;47.466;9.486;2022-12-29T19:12:53;1.90;;;0.82;;
37891;SDS011;45797;47.466;9.486;2022-12-29T19:17:56;1.95;;;0.90;;
37891;SDS011;45797;47.466;9.486;2022-12-29T19:23:07;2.05;;;0.98;;
37891;SDS011;45797;47.466;9.486;2022-12-29T19:28:29;2.70;;;1.25;;
37891;SDS011;45797;47.466;9.486;2022-12-29T19:38:36;2.58;;;1.02;;
37891;SDS011;45797;47.466;9.486;2022-12-29T19:53:45;2.30;;;1.08;;
37891;SDS011;45797;47.466;9.486;2022-12-29T19:58:47;2.22;;;1.00;;
37891;SDS011;45797;47.466;9.486;2022-12-29T20:03:54;2.38;;;1.00;;
37891;SDS011;45797;47.466;9.486;2022-12-29T20:08:55;2.15;;;1.02;;
37891;SDS011;45797;47.466;9.486;2022-12-29T20:14:02;2.47;;;1.05;;
37891;SDS011;45797;47.466;9.486;2022-12-29T20:19:02;3.40;;;1.08;;
37891;SDS011;45797;47.466;9.486;2022-12-29T20:24:03;1.90;;;0.90;;
37891;SDS011;45797;47.466;9.486;2022-12-29T20:29:11;2.55;;;0.90;;
37891;SDS011;45797;47.466;9.486;2022-12-29T20:34:23;1.58;;;0.80;;
37891;SDS011;45797;47.466;9.486;2022-12-29T20:39:30;4.40;;;0.90;;
37891;SDS011;45797;47.466;9.486;2022-12-29T20:49:44;1.83;;;0.93;;
37891;SDS011;45797;47.466;9.486;2022-12-29T20:54:45;2.35;;;0.95;;
37891;SDS011;45797;47.466;9.486;2022-12-29T20:59:45;2.20;;;1.00;;
37891;SDS011;45797;47.466;9.486;2022-12-29T21:04:46;2.75;;;1.10;;
37891;SDS011;45797;47.466;9.486;2022-12-29T21:09:59;3.55;;;1.00;;
37891;SDS011;45797;47.466;9.486;2022-12-29T21:15:06;2.67;;;1.10;;
37891;SDS011;45797;47.466;9.486;2022-12-29T21:20:07;2.13;;;1.08;;
37891;SDS011;45797;47.466;9.486;2022-12-29T21:25:08;2.67;;;0.90;;
37891;SDS011;45797;47.466;9.486;2022-12-29T21:30:10;2.92;;;1.00;;
37891;SDS011;45797;47.466;9.486;2022-12-29T21:35:21;3.40;;;1.13;;
37891;SDS011;45797;47.466;9.486;2022-12-29T21:40:21;3.25;;;1.08;;
37891;SDS011;45797;47.466;9.486;2022-12-29T21:50:41;2.92;;;1.10;;
37891;SDS011;45797;47.466;9.486;2022-12-29T22:07:05;2.03;;;0.90;;
37891;SDS011;45797;47.466;9.486;2022-12-29T22:18:19;2.13;;;1.15;;
37891;SDS011;45797;47.466;9.486;2022-12-29T22:23:20;2.58;;;1.10;;
37891;SDS011;45797;47.466;9.486;2022-12-29T22:33:26;2.72;;;0.88;;
37891;SDS011;45797;47.466;9.486;2022-12-29T22:38:26;2.80;;;1.17;;
37891;SDS011;45797;47.466;9.486;2022-12-29T22:43:32;2.22;;;0.93;;
37891;SDS011;45797;47.466;9.486;2022-12-29T22:48:33;4.82;;;1.08;;
37891;SDS011;45797;47.466;9.486;2022-12-29T22:58:45;3.88;;;1.40;;
37891;SDS011;45797;47.466;9.486;2022-12-29T23:09:02;3.45;;;1.20;;
37891;SDS011;45797;47.466;9.486;2022-12-29T23:14:17;3.08;;;1.10;;
37891;SDS011;45797;47.466;9.486;2022-12-29T23:19:18;2.88;;;0.98;;
37891;SDS011;45797;47.466;9.486;2022-12-29T23:24:18;2.58;;;1.02;;
37891;SDS011;45797;47.466;9.486;2022-12-29T23:29:20;1.67;;;0.85;;
37891;SDS011;45797;47.466;9.486;2022-12-29T23:34:22;1.20;;;0.50;;
37891;SDS011;45797;47.466;9.486;2022-12-29T23:39:24;0.95;;;0.50;;
37891;SDS011;45797;47.466;9.486;2022-12-29T23:44:33;1.30;;;0.40;;
37891;SDS011;45797;47.466;9.486;2022-12-29T23:49:49;0.90;;;0.50;;
37891;SDS011;45797;47.466;9.486;2022-12-29T23:54:58;0.52;;;0.40;;
37891;SDS011;45797;47.466;9.486;2022-12-29T23:59:58;0.38;;;0.30;;
